Time;durP1;ratioP1;P1;durP2;ratioP2;P2;SDS_P1;SDS_P2;PMS_P1;PMS_P2;Temp;Humidity;BMP_temperature;BMP_pressure;BME280_temperature;BME280_humidity;BME280_pressure;Samples;Min_cycle;Max_cycle;Signal;HPM_P1;HPM_P2
2021/03/18 00:00:44;;;;;;;4.88;3.10;;;17.40;42.60;;;;;;5090994;28;20160;-81
2021/03/18 00:03:30;;;;;;;4.82;2.90;;;17.40;42.60;;;;;;5073854;28;20168;-82
2021/03/18 00:05:57;;;;;;;5.63;3.20;;;17.40;42.70;;;;;;5073227;28;20165;-81
2021/03/18 00:08:25;;;;;;;5.18;2.97;;;17.40;42.50;;;;;;5090413;28;20287;-81
2021/03/18 00:11:00;;;;;;;7.32;3.25;;;17.40;42.60;;;;;;5090386;28;20176;-81
2021/03/18 00:13:28;;;;;;;5.47;3.13;;;17.40;42.60;;;;;;5090660;28;20611;-82
2021/03/18 00:16:03;;;;;;;5.70;3.22;;;17.40;42.50;;;;;;5112124;28;20579;-82
2021/03/18 00:18:33;;;;;;;5.20;2.67;;;17.40;42.50;;;;;;5111772;28;20160;-81
2021/03/18 00:21:03;;;;;;;4.40;2.78;;;17.40;42.50;;;;;;5094903;28;20174;-82
2021/03/18 00:23:30;;;;;;;5.68;3.30;;;17.40;42.50;;;;;;5094763;28;20233;-82
2021/03/18 00:25:56;;;;;;;5.20;2.88;;;17.40;42.50;;;;;;5106915;28;20178;-82
2021/03/18 00:28:24;;;;;;;6.13;3.30;;;17.30;42.50;;;;;;5098217;28;20235;-81
2021/03/18 00:30:50;;;;;;;6.25;3.38;;;17.30;42.50;;;;;;5099085;28;20152;-81
2021/03/18 00:33:17;;;;;;;5.95;3.08;;;17.40;42.50;;;;;;5098538;28;20206;-81
2021/03/18 00:35:47;;;;;;;6.63;3.45;;;17.30;42.80;;;;;;5097475;28;20651;-81
2021/03/18 00:38:13;;;;;;;5.03;2.97;;;17.30;42.60;;;;;;5099656;28;20195;-81
2021/03/18 00:40:46;;;;;;;6.53;3.10;;;17.30;42.60;;;;;;5097611;28;20157;-81
2021/03/18 00:43:16;;;;;;;5.78;3.10;;;17.30;42.50;;;;;;5097601;28;20667;-81
2021/03/18 00:45:51;;;;;;;6.45;3.10;;;17.30;42.60;;;;;;5097522;28;20164;-81
2021/03/18 00:48:19;;;;;;;5.43;3.22;;;17.30;42.60;;;;;;5080354;28;20198;-82
2021/03/18 00:50:59;;;;;;;5.95;3.03;;;17.30;42.80;;;;;;5097086;28;20688;-81
2021/03/18 00:53:31;;;;;;;4.30;2.90;;;17.30;42.70;;;;;;5097176;28;20153;-82
2021/03/18 00:55:58;;;;;;;4.85;2.90;;;17.30;42.60;;;;;;5097305;28;20199;-82
2021/03/18 00:58:30;;;;;;;5.53;3.33;;;17.40;43.10;;;;;;5096556;28;20177;-82
2021/03/18 01:00:58;;;;;;;4.53;3.10;;;17.40;42.60;;;;;;5096889;28;20188;-81
2021/03/18 01:03:25;;;;;;;5.07;3.00;;;17.30;42.60;;;;;;5096648;28;20153;-81
2021/03/18 01:06:14;;;;;;;5.00;3.00;;;17.30;42.70;;;;;;5079691;28;20247;-81
2021/03/18 01:08:40;;;;;;;5.25;2.80;;;17.30;42.90;;;;;;5097942;28;20164;-81
2021/03/18 01:11:11;;;;;;;6.32;3.78;;;17.30;42.70;;;;;;5079471;28;20164;-81
2021/03/18 01:13:38;;;;;;;4.78;2.90;;;17.30;42.80;;;;;;5079900;28;20624;-82
2021/03/18 01:16:09;;;;;;;4.55;3.08;;;17.30;42.70;;;;;;5096515;28;20227;-81
2021/03/18 01:18:46;;;;;;;5.43;2.95;;;17.30;42.70;;;;;;5096685;28;20207;-82
2021/03/18 01:21:12;;;;;;;4.88;3.00;;;17.30;42.70;;;;;;5081286;28;20172;-81
2021/03/18 01:23:38;;;;;;;4.30;2.47;;;17.30;42.80;;;;;;5096555;28;20161;-81
2021/03/18 01:26:05;;;;;;;5.15;2.90;;;17.20;42.80;;;;;;5096125;28;20160;-81
2021/03/18 01:28:32;;;;;;;4.70;2.85;;;17.20;42.80;;;;;;5097435;28;20662;-81
2021/03/18 01:31:01;;;;;;;5.25;3.05;;;17.30;42.90;;;;;;5096795;28;20206;-81
2021/03/18 01:33:28;;;;;;;4.68;2.78;;;17.30;42.90;;;;;;5096005;28;20149;-81
2021/03/18 01:35:55;;;;;;;4.07;2.97;;;17.20;42.90;;;;;;5095765;28;20241;-81
2021/03/18 01:38:22;;;;;;;5.40;2.95;;;17.30;42.80;;;;;;5094684;28;20157;-81
2021/03/18 01:40:51;;;;;;;4.78;2.95;;;17.30;42.90;;;;;;5078428;28;20169;-81
2021/03/18 01:43:17;;;;;;;5.20;3.10;;;17.30;42.90;;;;;;5095336;28;20153;-81
2021/03/18 01:45:43;;;;;;;5.05;3.17;;;17.20;42.80;;;;;;5077995;28;20200;-81
2021/03/18 01:48:09;;;;;;;7.10;3.00;;;17.30;42.80;;;;;;5078301;28;20214;-81
2021/03/18 01:50:36;;;;;;;5.60;2.83;;;17.20;43.00;;;;;;5095044;28;20168;-82
2021/03/18 01:53:02;;;;;;;4.75;2.92;;;17.20;42.80;;;;;;5096377;28;20156;-81
2021/03/18 01:55:36;;;;;;;9.15;3.05;;;17.30;42.80;;;;;;5077685;28;20203;-81
2021/03/18 01:58:10;;;;;;;6.03;3.20;;;17.30;42.90;;;;;;5078046;28;20168;-81
2021/03/18 02:00:38;;;;;;;4.60;2.83;;;17.20;42.90;;;;;;5077477;28;20531;-81
2021/03/18 02:03:13;;;;;;;4.10;2.80;;;17.20;43.00;;;;;;5094694;28;20586;-81
2021/03/18 02:05:43;;;;;;;4.85;2.70;;;17.20;42.90;;;;;;5077344;28;20263;-82
2021/03/18 02:08:10;;;;;;;4.13;2.90;;;17.20;42.90;;;;;;5094264;28;20188;-81
2021/03/18 02:10:39;;;;;;;5.00;2.70;;;17.20;42.80;;;;;;5077643;28;20164;-81
2021/03/18 02:13:07;;;;;;;3.97;2.75;;;17.20;42.90;;;;;;5094139;28;20199;-81
2021/03/18 02:15:39;;;;;;;4.53;2.53;;;17.20;43.00;;;;;;5095187;28;20212;-81
2021/03/18 02:18:39;;;;;;;4.40;2.80;;;17.20;43.00;;;;;;5076877;28;20165;-81
2021/03/18 02:21:24;;;;;;;5.70;3.00;;;17.20;43.10;;;;;;5093888;28;20157;-81
2021/03/18 02:24:11;;;;;;;4.88;2.80;;;17.20;43.10;;;;;;5093426;28;20581;-81
2021/03/18 02:26:49;;;;;;;5.75;2.88;;;17.20;43.10;;;;;;5093583;28;20191;-81
2021/03/18 02:29:45;;;;;;;5.32;3.05;;;17.20;43.20;;;;;;5093643;28;20152;-81
2021/03/18 02:32:42;;;;;;;4.05;2.75;;;17.20;43.00;;;;;;5078770;28;20222;-81
2021/03/18 02:35:24;;;;;;;6.68;3.00;;;17.20;43.10;;;;;;5093235;28;20284;-81
2021/03/18 02:38:20;;;;;;;3.83;2.67;;;17.20;43.10;;;;;;5076725;28;20172;-81
2021/03/18 02:40:53;;;;;;;4.60;2.90;;;17.20;42.90;;;;;;5078194;28;20188;-81
2021/03/18 02:43:20;;;;;;;6.07;3.05;;;17.20;43.00;;;;;;5095584;28;20625;-81
2021/03/18 02:45:56;;;;;;;4.05;2.60;;;17.20;42.90;;;;;;5095875;28;20157;-82
2021/03/18 02:48:33;;;;;;;5.18;2.78;;;17.20;43.10;;;;;;5095464;28;20156;-81
2021/03/18 02:50:59;;;;;;;4.90;2.90;;;17.20;43.00;;;;;;5095822;28;20236;-82
2021/03/18 02:53:26;;;;;;;5.18;2.75;;;17.20;43.10;;;;;;5078713;28;20636;-82
2021/03/18 02:55:52;;;;;;;3.40;2.70;;;17.20;42.90;;;;;;5095667;28;20192;-82
2021/03/18 02:58:38;;;;;;;4.30;2.92;;;17.20;43.10;;;;;;5096555;28;20183;-81
2021/03/18 03:01:05;;;;;;;4.88;2.75;;;17.20;43.10;;;;;;5096464;28;20161;-81
2021/03/18 03:03:32;;;;;;;5.68;2.90;;;17.20;43.10;;;;;;5095784;28;20156;-82
2021/03/18 03:05:58;;;;;;;4.45;2.70;;;17.20;43.00;;;;;;5095871;28;20175;-82
2021/03/18 03:08:25;;;;;;;4.18;2.67;;;17.20;43.10;;;;;;5096021;28;20161;-81
2021/03/18 03:10:56;;;;;;;4.10;2.85;;;17.20;43.10;;;;;;5078741;28;20176;-81
2021/03/18 03:13:22;;;;;;;3.25;2.40;;;17.20;43.00;;;;;;5078515;28;20168;-81
2021/03/18 03:15:50;;;;;;;4.07;3.08;;;17.20;43.10;;;;;;5095174;28;20219;-82
2021/03/18 03:18:28;;;;;;;5.93;3.08;;;17.20;43.10;;;;;;5095824;28;20153;-81
2021/03/18 03:20:55;;;;;;;4.45;2.60;;;17.10;43.10;;;;;;5078560;28;20160;-81
2021/03/18 03:23:22;;;;;;;5.05;2.63;;;17.10;43.10;;;;;;5096802;28;20167;-81
2021/03/18 03:25:48;;;;;;;4.55;2.90;;;17.10;43.10;;;;;;5096028;28;20159;-81
2021/03/18 03:28:15;;;;;;;3.83;2.80;;;17.10;43.00;;;;;;5078820;28;20189;-81
2021/03/18 03:30:42;;;;;;;3.70;2.72;;;17.20;43.10;;;;;;5095854;28;20152;-82
2021/03/18 03:33:09;;;;;;;5.70;3.30;;;17.20;43.00;;;;;;5079130;28;20222;-81
2021/03/18 03:35:44;;;;;;;4.97;2.70;;;17.20;43.10;;;;;;5097127;28;20188;-81
2021/03/18 03:38:10;;;;;;;4.93;2.97;;;17.20;43.00;;;;;;5078850;28;20172;-81
2021/03/18 03:40:36;;;;;;;4.63;2.80;;;17.20;43.10;;;;;;5078476;28;20578;-81
2021/03/18 03:43:03;;;;;;;5.57;2.78;;;17.10;43.10;;;;;;5096140;28;20141;-81
2021/03/18 03:45:38;;;;;;;3.92;2.65;;;17.10;43.00;;;;;;5096047;28;20226;-81
2021/03/18 03:48:07;;;;;;;4.45;2.85;;;17.10;43.20;;;;;;5078932;28;20164;-81
2021/03/18 03:50:34;;;;;;;3.92;2.65;;;17.10;43.20;;;;;;5095502;28;20264;-82
2021/03/18 03:53:02;;;;;;;4.95;2.92;;;17.20;43.20;;;;;;5094933;28;20149;-81
2021/03/18 03:55:55;;;;;;;4.72;2.75;;;17.10;43.20;;;;;;5095246;28;20185;-81
2021/03/18 03:58:47;;;;;;;4.68;2.80;;;17.10;43.20;;;;;;5097660;28;20180;-81
2021/03/18 04:01:30;;;;;;;5.38;3.00;;;17.10;43.20;;;;;;5096428;28;20204;-81
2021/03/18 04:04:03;;;;;;;5.28;2.80;;;17.10;43.20;;;;;;5099344;28;20165;-81
2021/03/18 04:06:33;;;;;;;4.60;2.85;;;17.10;43.00;;;;;;5098918;28;20521;-82
2021/03/18 04:09:02;;;;;;;4.13;2.83;;;17.10;43.00;;;;;;5082024;28;20161;-81
2021/03/18 04:11:28;;;;;;;3.35;2.45;;;17.10;43.00;;;;;;5099061;28;20190;-81
2021/03/18 04:13:54;;;;;;;3.72;2.60;;;17.10;43.10;;;;;;5098540;28;20508;-81
2021/03/18 04:16:22;;;;;;;3.88;2.67;;;17.10;43.00;;;;;;5099156;28;20236;-81
2021/03/18 04:18:49;;;;;;;4.30;3.10;;;17.10;43.20;;;;;;5099254;28;20153;-81
2021/03/18 04:21:15;;;;;;;4.22;3.10;;;17.10;43.20;;;;;;5098505;28;20207;-81
2021/03/18 04:23:50;;;;;;;3.83;2.75;;;17.10;43.20;;;;;;5081559;28;20164;-81
2021/03/18 04:26:17;;;;;;;3.55;2.88;;;17.10;43.20;;;;;;5082049;28;20164;-82
2021/03/18 04:28:46;;;;;;;3.58;2.83;;;17.10;43.40;;;;;;5098651;28;20160;-81
2021/03/18 04:31:13;;;;;;;3.63;2.53;;;17.10;43.20;;;;;;5098887;28;20749;-81
2021/03/18 04:33:40;;;;;;;4.53;2.70;;;17.10;43.10;;;;;;5099463;28;20234;-81
2021/03/18 04:36:08;;;;;;;4.72;3.03;;;17.10;43.20;;;;;;5099206;28;20205;-81
2021/03/18 04:38:34;;;;;;;6.32;3.08;;;17.10;43.00;;;;;;5099126;28;20214;-82
2021/03/18 04:41:00;;;;;;;3.80;2.70;;;17.10;43.20;;;;;;5081594;28;20199;-81
2021/03/18 04:43:26;;;;;;;3.88;2.47;;;17.10;43.20;;;;;;5097985;28;20148;-81
2021/03/18 04:45:53;;;;;;;4.72;2.70;;;17.10;43.20;;;;;;5081694;28;20269;-81
2021/03/18 04:48:19;;;;;;;5.32;2.70;;;17.10;43.20;;;;;;5082139;28;20161;-81
2021/03/18 04:50:47;;;;;;;5.88;2.95;;;17.10;43.20;;;;;;5081595;28;20173;-81
2021/03/18 04:53:18;;;;;;;3.60;2.60;;;17.10;43.30;;;;;;5097566;28;20164;-81
2021/03/18 04:55:45;;;;;;;4.57;2.78;;;17.10;43.20;;;;;;5098090;28;20654;-81
2021/03/18 04:58:12;;;;;;;4.93;2.70;;;17.10;43.20;;;;;;5097588;28;20165;-81
2021/03/18 05:00:44;;;;;;;4.32;3.10;;;17.10;43.00;;;;;;5099212;28;20191;-82
2021/03/18 05:03:19;;;;;;;4.18;2.70;;;17.10;43.10;;;;;;5081960;28;20249;-82
2021/03/18 05:05:57;;;;;;;4.22;2.75;;;17.10;43.00;;;;;;5098025;28;20172;-81
2021/03/18 05:08:35;;;;;;;3.08;2.42;;;17.10;43.20;;;;;;5098923;28;20168;-82
2021/03/18 05:11:02;;;;;;;4.63;2.78;;;17.10;42.80;;;;;;5081226;28;20209;-81
2021/03/18 05:13:37;;;;;;;4.22;2.80;;;17.20;42.60;;;;;;5098505;28;20607;-81
2021/03/18 05:16:05;;;;;;;4.55;2.80;;;17.10;42.50;;;;;;5098260;28;20246;-81
2021/03/18 05:18:40;;;;;;;5.65;2.60;;;17.20;42.30;;;;;;5098633;28;20206;-81
2021/03/18 05:21:08;;;;;;;3.53;2.58;;;17.20;42.40;;;;;;5097655;28;20208;-81
2021/03/18 05:23:35;;;;;;;3.28;2.35;;;17.20;42.70;;;;;;5098243;28;20153;-81
2021/03/18 05:26:02;;;;;;;3.95;2.60;;;17.10;42.40;;;;;;5098374;28;20207;-81
2021/03/18 05:28:37;;;;;;;5.13;2.92;;;17.20;42.30;;;;;;5098688;28;20153;-81
2021/03/18 05:31:11;;;;;;;3.17;2.50;;;17.20;42.50;;;;;;5081376;28;20160;-81
2021/03/18 05:33:37;;;;;;;4.10;2.60;;;17.20;42.10;;;;;;5081272;28;20160;-81
2021/03/18 05:36:05;;;;;;;3.15;2.47;;;17.20;42.20;;;;;;5097384;28;20222;-81
2021/03/18 05:38:40;;;;;;;3.95;2.40;;;17.20;42.10;;;;;;5080850;28;20642;-81
2021/03/18 05:41:13;;;;;;;5.53;3.13;;;17.20;42.20;;;;;;5099147;28;20152;-81
2021/03/18 05:43:47;;;;;;;5.05;2.50;;;17.20;42.40;;;;;;5098364;28;20145;-81
2021/03/18 05:46:15;;;;;;;2.80;2.10;;;17.20;42.20;;;;;;5080828;28;20160;-81
2021/03/18 05:48:46;;;;;;;4.32;2.70;;;17.20;42.00;;;;;;5097039;28;20203;-80
2021/03/18 05:51:18;;;;;;;3.72;2.40;;;17.20;42.10;;;;;;5098515;28;20607;-81
2021/03/18 05:53:47;;;;;;;2.75;2.30;;;17.20;41.80;;;;;;5080918;28;20239;-81
2021/03/18 05:56:19;;;;;;;3.45;2.53;;;17.20;41.70;;;;;;5080596;28;20200;-81
2021/03/18 05:58:54;;;;;;;3.15;2.13;;;17.20;42.00;;;;;;5097665;28;20159;-81
2021/03/18 06:01:20;;;;;;;3.70;2.40;;;17.20;42.50;;;;;;5098164;28;20195;-81
2021/03/18 06:03:46;;;;;;;2.80;2.40;;;17.20;42.00;;;;;;5081048;28;20169;-82
2021/03/18 06:06:12;;;;;;;4.25;2.60;;;17.20;41.90;;;;;;5098206;28;20178;-80
2021/03/18 06:08:38;;;;;;;3.08;2.55;;;17.20;41.80;;;;;;5082584;28;20635;-81
2021/03/18 06:11:05;;;;;;;3.80;2.22;;;17.20;41.70;;;;;;5079338;28;20191;-81
2021/03/18 06:13:31;;;;;;;4.28;2.10;;;17.20;41.30;;;;;;5063833;28;20165;-81
2021/03/18 06:15:57;;;;;;;3.90;2.53;;;17.30;41.20;;;;;;5061988;28;20227;-81
2021/03/18 06:18:24;;;;;;;3.92;2.33;;;17.20;41.40;;;;;;5062301;28;20176;-81
2021/03/18 06:20:53;;;;;;;3.15;2.22;;;17.20;41.50;;;;;;5062468;28;20179;-80
2021/03/18 06:23:28;;;;;;;2.50;2.25;;;17.20;41.60;;;;;;5096900;28;20197;-81
2021/03/18 06:25:55;;;;;;;3.35;2.53;;;17.20;41.70;;;;;;5079062;28;20274;-81
2021/03/18 06:28:28;;;;;;;2.97;2.30;;;17.20;41.70;;;;;;5096691;28;20160;-81
2021/03/18 06:31:16;;;;;;;2.70;2.15;;;17.10;41.60;;;;;;5076159;28;20176;-81
2021/03/18 06:33:51;;;;;;;3.03;2.28;;;17.10;41.80;;;;;;5079782;28;20547;-81
2021/03/18 06:36:25;;;;;;;4.30;2.10;;;17.10;41.90;;;;;;5078845;28;20256;-81
2021/03/18 06:39:07;;;;;;;2.85;2.22;;;17.20;41.40;;;;;;5097569;28;20153;-81
2021/03/18 06:41:40;;;;;;;3.08;2.28;;;17.20;41.10;;;;;;5079785;28;20168;-81
2021/03/18 06:44:27;;;;;;;4.43;2.53;;;17.20;41.30;;;;;;5097181;28;20149;-81
2021/03/18 06:47:07;;;;;;;3.00;2.20;;;17.20;41.30;;;;;;5110166;28;20157;-81
2021/03/18 06:49:33;;;;;;;3.03;2.20;;;17.20;41.40;;;;;;5060511;28;20582;-81
2021/03/18 06:52:06;;;;;;;2.70;2.20;;;17.30;41.20;;;;;;5077519;28;20157;-81
2021/03/18 06:54:36;;;;;;;2.85;2.20;;;17.20;41.60;;;;;;5059901;28;20193;-81
2021/03/18 06:57:04;;;;;;;2.67;2.33;;;17.20;41.80;;;;;;5061844;28;20184;-82
2021/03/18 06:59:36;;;;;;;3.60;1.92;;;17.20;41.80;;;;;;5080278;28;20164;-81
2021/03/18 07:02:17;;;;;;;2.67;2.00;;;17.30;42.50;;;;;;5078230;28;20172;-81
2021/03/18 07:04:51;;;;;;;2.80;1.80;;;17.30;42.40;;;;;;5100682;28;20194;-82
2021/03/18 07:07:19;;;;;;;3.30;2.15;;;17.30;42.10;;;;;;5100062;28;20611;-82
2021/03/18 07:10:13;;;;;;;3.00;2.08;;;17.20;42.10;;;;;;5097753;28;20291;-81
2021/03/18 07:12:41;;;;;;;3.45;1.98;;;17.20;41.90;;;;;;5083353;28;20167;-82
2021/03/18 07:15:20;;;;;;;2.90;1.90;;;17.20;41.70;;;;;;5079537;28;20816;-82
2021/03/18 07:17:48;;;;;;;3.50;2.25;;;17.30;41.40;;;;;;5100031;28;20156;-82
2021/03/18 07:20:17;;;;;;;3.70;2.03;;;17.30;41.20;;;;;;5085834;28;20172;-82
2021/03/18 07:22:53;;;;;;;7.28;2.10;;;17.20;41.10;;;;;;5082259;28;20625;-82
2021/03/18 07:25:21;;;;;;;2.30;1.90;;;17.20;40.70;;;;;;5097840;28;20217;-82
2021/03/18 07:27:52;;;;;;;6.57;2.08;;;17.30;40.70;;;;;;5078699;28;20268;-83
2021/03/18 07:30:23;;;;;;;3.13;1.92;;;17.30;41.40;;;;;;5079156;28;20165;-81
2021/03/18 07:32:59;;;;;;;3.25;2.10;;;17.40;40.20;;;;;;5097116;28;20159;-82
2021/03/18 07:35:28;;;;;;;3.67;1.83;;;17.40;40.20;;;;;;5079455;28;20207;-82
2021/03/18 07:37:56;;;;;;;2.78;1.92;;;17.40;40.30;;;;;;5101596;28;20149;-82
2021/03/18 07:40:23;;;;;;;2.33;1.90;;;17.40;40.20;;;;;;5084152;28;20221;-82
2021/03/18 07:42:52;;;;;;;1.92;1.75;;;17.40;40.00;;;;;;5102183;28;20169;-82
2021/03/18 07:45:28;;;;;;;2.60;1.88;;;17.40;40.00;;;;;;5102602;28;20635;-82
2021/03/18 07:48:04;;;;;;;3.70;1.85;;;17.50;39.90;;;;;;5101309;28;20159;-82
2021/03/18 07:50:39;;;;;;;2.45;1.75;;;17.50;39.90;;;;;;5087175;28;20642;-82
2021/03/18 07:53:12;;;;;;;3.15;2.13;;;17.50;39.90;;;;;;5104431;28;20144;-83
2021/03/18 07:55:41;;;;;;;3.50;1.80;;;17.50;39.80;;;;;;5086485;28;20267;-82
2021/03/18 07:58:13;;;;;;;3.28;2.13;;;17.40;39.90;;;;;;5088903;28;20178;-82
2021/03/18 08:00:41;;;;;;;2.85;1.80;;;17.50;39.70;;;;;;5088715;28;20165;-83
2021/03/18 08:03:21;;;;;;;2.58;1.95;;;17.60;39.70;;;;;;5106671;28;20177;-83
2021/03/18 08:05:56;;;;;;;2.53;2.00;;;17.50;39.80;;;;;;5112578;28;20184;-84
2021/03/18 08:08:31;;;;;;;2.47;1.77;;;17.50;39.60;;;;;;5126468;27;20180;-83
2021/03/18 08:11:05;;;;;;;4.35;2.08;;;17.50;39.80;;;;;;5106571;28;20156;-82
2021/03/18 08:13:33;;;;;;;2.85;2.20;;;17.50;40.10;;;;;;5106184;28;20164;-83
2021/03/18 08:16:26;;;;;;;3.53;2.13;;;17.50;40.10;;;;;;5125327;28;20220;-84
2021/03/18 08:18:54;;;;;;;3.15;2.08;;;17.50;40.30;;;;;;5108752;28;20182;-83
2021/03/18 08:21:21;;;;;;;2.95;2.20;;;17.40;40.40;;;;;;5082081;28;20169;-80
2021/03/18 08:23:49;;;;;;;4.18;2.05;;;17.40;40.50;;;;;;5082802;28;20530;-82
2021/03/18 08:26:52;;;;;;;3.92;2.20;;;17.40;40.50;;;;;;5064108;28;20301;-81
2021/03/18 08:29:41;;;;;;;4.07;2.20;;;17.50;40.30;;;;;;5098790;28;20153;-81
2021/03/18 08:34:53;;;;;;;4.07;2.60;;;17.40;40.80;;;;;;5091899;28;20232;-81
2021/03/18 08:37:41;;;;;;;5.03;2.83;;;17.40;40.50;;;;;;5069174;28;20195;-81
2021/03/18 08:40:22;;;;;;;3.15;2.47;;;17.50;40.50;;;;;;5070442;28;20154;-80
2021/03/18 08:43:19;;;;;;;4.05;2.67;;;17.50;40.50;;;;;;5089691;28;20150;-80
2021/03/18 08:45:46;;;;;;;5.50;2.67;;;17.50;40.60;;;;;;5067756;28;20578;-81
2021/03/18 08:48:21;;;;;;;3.50;2.40;;;17.50;40.60;;;;;;5066939;28;20150;-80
2021/03/18 08:50:52;;;;;;;3.47;2.13;;;17.50;40.70;;;;;;5050735;28;20169;-80
2021/03/18 08:53:46;;;;;;;3.15;2.30;;;17.50;40.80;;;;;;5051112;28;20257;-81
2021/03/18 08:56:16;;;;;;;3.15;2.30;;;17.50;40.50;;;;;;5071408;28;20206;-82
2021/03/18 08:58:53;;;;;;;3.80;2.10;;;17.50;40.60;;;;;;5053479;28;20192;-83
2021/03/18 09:01:57;;;;;;;3.70;2.38;;;17.50;40.70;;;;;;5068810;28;20150;-83
2021/03/18 09:04:50;;;;;;;2.92;2.40;;;17.40;41.20;;;;;;5069773;28;20158;-82
2021/03/18 09:07:23;;;;;;;4.97;2.65;;;17.40;40.90;;;;;;5064742;28;20158;-83
2021/03/18 09:10:09;;;;;;;4.75;2.50;;;17.40;41.30;;;;;;5025407;28;20560;-83
2021/03/18 09:16:49;;;;;;;;;;;;;;;;;;;;;
2021/03/18 09:19:37;;;;;;;4.70;2.40;;;17.30;41.80;;;;;;5034862;28;20187;-83
2021/03/18 09:22:32;;;;;;;5.88;1.80;;;17.30;41.60;;;;;;5019024;28;20680;-83
2021/03/18 09:25:26;;;;;;;3.28;2.33;;;17.40;41.40;;;;;;5017264;28;20194;-84
2021/03/18 09:31:23;;;;;;;4.18;2.40;;;17.50;41.20;;;;;;5033411;28;20594;-83
2021/03/18 09:34:08;;;;;;;3.88;2.40;;;17.50;41.90;;;;;;5027368;28;20337;-82
2021/03/18 09:36:42;;;;;;;4.05;2.17;;;17.60;41.00;;;;;;5041769;28;20182;-83
2021/03/18 09:40:04;;;;;;;4.38;2.25;;;17.60;41.20;;;;;;5022854;28;20178;-83
2021/03/18 09:43:12;;;;;;;2.95;2.15;;;17.60;41.20;;;;;;5040969;28;20205;-83
2021/03/18 09:45:38;;;;;;;2.92;2.15;;;17.60;41.20;;;;;;5039198;28;20663;-80
2021/03/18 09:48:06;;;;;;;2.58;1.95;;;17.60;41.50;;;;;;5022678;28;20627;-81
2021/03/18 09:50:35;;;;;;;3.40;2.15;;;17.60;41.20;;;;;;5061098;28;20234;-81
2021/03/18 09:53:07;;;;;;;5.90;2.45;;;17.60;41.20;;;;;;5046692;28;20162;-81
2021/03/18 09:55:33;;;;;;;4.07;2.30;;;17.70;41.20;;;;;;5046807;28;20602;-81
2021/03/18 09:58:11;;;;;;;4.72;2.03;;;17.70;41.30;;;;;;5046940;28;20162;-81
2021/03/18 10:00:46;;;;;;;3.95;2.10;;;17.60;41.50;;;;;;5064817;28;20212;-81
2021/03/18 10:03:13;;;;;;;5.93;2.20;;;17.60;41.40;;;;;;5062794;28;20157;-80
2021/03/18 10:05:40;;;;;;;3.42;2.10;;;17.60;41.60;;;;;;5044967;28;20173;-81
2021/03/18 10:08:08;;;;;;;3.83;2.40;;;17.70;41.20;;;;;;5060945;28;20207;-81
2021/03/18 10:10:34;;;;;;;3.15;2.22;;;17.80;41.30;;;;;;5060978;28;20158;-81
2021/03/18 10:13:02;;;;;;;3.75;2.20;;;17.80;41.40;;;;;;5045321;28;20558;-82
2021/03/18 10:15:29;;;;;;;3.13;2.00;;;17.70;41.50;;;;;;5062275;28;20178;-81
2021/03/18 10:18:04;;;;;;;4.70;1.98;;;17.70;41.30;;;;;;5062907;28;20522;-81
2021/03/18 10:20:32;;;;;;;2.38;1.90;;;17.70;41.20;;;;;;5044890;28;20208;-81
2021/03/18 10:23:10;;;;;;;4.20;1.90;;;17.80;41.20;;;;;;5060493;28;20158;-81
2021/03/18 10:25:46;;;;;;;4.10;2.20;;;17.70;41.10;;;;;;5042190;28;20536;-81
2021/03/18 10:28:13;;;;;;;2.15;1.63;;;17.70;41.00;;;;;;5060917;28;20165;-81
2021/03/18 10:30:49;;;;;;;2.75;2.00;;;17.70;41.20;;;;;;5041925;28;20151;-82
2021/03/18 10:33:20;;;;;;;2.95;2.10;;;17.70;41.30;;;;;;5060017;28;20217;-81
2021/03/18 10:36:06;;;;;;;3.00;2.10;;;17.70;41.20;;;;;;5060674;28;20239;-81
2021/03/18 10:38:36;;;;;;;3.90;2.08;;;17.80;41.40;;;;;;5058785;28;20181;-81
2021/03/18 10:41:13;;;;;;;3.53;2.00;;;17.80;41.40;;;;;;5060165;28;20159;-80
2021/03/18 10:43:45;;;;;;;2.35;1.98;;;17.80;41.30;;;;;;5060580;28;20150;-80
2021/03/18 10:46:14;;;;;;;2.90;1.83;;;17.80;41.20;;;;;;5042219;28;20170;-81
2021/03/18 10:48:44;;;;;;;2.78;1.98;;;17.80;41.10;;;;;;5058445;28;20164;-80
2021/03/18 10:51:12;;;;;;;3.42;2.05;;;17.80;41.20;;;;;;5057635;28;20223;-81
2021/03/18 10:53:40;;;;;;;2.63;1.95;;;17.80;40.80;;;;;;5059563;28;20155;-80
2021/03/18 10:56:06;;;;;;;2.28;2.00;;;17.90;40.90;;;;;;5042718;28;20205;-80
2021/03/18 10:58:33;;;;;;;3.25;1.77;;;17.70;41.30;;;;;;5041107;28;20160;-82
2021/03/18 11:00:59;;;;;;;1.75;1.60;;;17.70;41.30;;;;;;5058857;28;20151;-81
2021/03/18 11:03:31;;;;;;;3.20;1.83;;;17.80;41.30;;;;;;5043301;28;20170;-80
2021/03/18 11:05:58;;;;;;;3.83;2.13;;;17.80;41.30;;;;;;5060592;28;20169;-81
2021/03/18 11:08:32;;;;;;;2.42;2.08;;;17.70;41.60;;;;;;5059502;28;20173;-81
2021/03/18 11:11:10;;;;;;;2.53;1.88;;;17.70;41.50;;;;;;5061245;28;20165;-81
2021/03/18 11:13:37;;;;;;;2.97;2.00;;;17.70;41.40;;;;;;5061921;28;20746;-81
2021/03/18 11:16:23;;;;;;;4.03;1.85;;;17.70;41.30;;;;;;5060442;28;20198;-81
2021/03/18 11:18:54;;;;;;;2.65;1.90;;;17.70;41.40;;;;;;5060836;28;20367;-82
2021/03/18 11:21:34;;;;;;;3.42;2.20;;;17.70;41.60;;;;;;5042297;28;20151;-81
2021/03/18 11:24:25;;;;;;;2.63;1.55;;;17.60;41.60;;;;;;5053180;28;20258;-81
2021/03/18 11:26:51;;;;;;;4.68;1.80;;;17.70;41.30;;;;;;5051682;28;20542;-81
2021/03/18 11:29:26;;;;;;;4.50;1.98;;;17.70;41.30;;;;;;5053058;28;20609;-82
2021/03/18 11:31:54;;;;;;;2.65;1.70;;;17.70;41.50;;;;;;5052212;28;20157;-81
2021/03/18 11:34:30;;;;;;;3.58;2.20;;;17.70;41.30;;;;;;5051639;28;20247;-81
2021/03/18 11:37:17;;;;;;;4.40;2.67;;;17.80;41.60;;;;;;5051760;28;20204;-81
2021/03/18 11:40:01;;;;;;;4.30;1.90;;;17.80;41.60;;;;;;5037466;28;20178;-81
2021/03/18 11:42:29;;;;;;;3.65;2.28;;;17.90;41.50;;;;;;5060252;28;20155;-81
2021/03/18 11:44:55;;;;;;;5.22;3.05;;;17.90;41.70;;;;;;5059305;28;20518;-80
2021/03/18 11:47:29;;;;;;;4.75;2.67;;;17.90;41.70;;;;;;5058233;28;20174;-81
2021/03/18 11:49:55;;;;;;;5.05;2.60;;;17.90;41.40;;;;;;5059709;28;20236;-81
2021/03/18 11:52:38;;;;;;;5.60;2.65;;;17.90;41.20;;;;;;5054971;28;20163;-81
2021/03/18 11:55:06;;;;;;;7.35;3.67;;;17.90;41.60;;;;;;5063344;28;20184;-81
2021/03/18 11:57:32;;;;;;;6.38;4.07;;;18.00;41.40;;;;;;5081922;28;20176;-82
2021/03/18 11:59:58;;;;;;;9.88;4.63;;;18.00;41.40;;;;;;5096652;28;20209;-81
2021/03/18 12:02:25;;;;;;;7.80;3.00;;;18.00;41.10;;;;;;5078992;28;20235;-82
2021/03/18 12:04:54;;;;;;;5.35;2.60;;;18.10;41.30;;;;;;5081295;28;20164;-82
2021/03/18 12:07:20;;;;;;;5.35;2.95;;;18.10;41.00;;;;;;5082847;28;20600;-80
2021/03/18 12:09:48;;;;;;;5.10;2.42;;;18.10;41.50;;;;;;5065465;28;20197;-81
2021/03/18 12:12:14;;;;;;;3.60;2.50;;;18.10;41.20;;;;;;5099053;28;20158;-81
2021/03/18 12:14:46;;;;;;;4.45;2.33;;;18.00;41.70;;;;;;5083624;28;20195;-82
2021/03/18 12:17:11;;;;;;;3.50;2.22;;;17.90;41.90;;;;;;5074916;28;20266;-81
2021/03/18 12:19:37;;;;;;;5.63;2.25;;;17.90;42.20;;;;;;5065638;28;20792;-82
2021/03/18 12:22:03;;;;;;;4.30;2.40;;;17.80;41.90;;;;;;5069136;28;20574;-81
2021/03/18 12:24:31;;;;;;;6.03;2.50;;;17.90;42.10;;;;;;5082200;28;20158;-81
2021/03/18 12:26:57;;;;;;;4.47;2.75;;;17.80;42.30;;;;;;5063485;28;20617;-80
2021/03/18 12:29:24;;;;;;;4.00;2.50;;;17.80;42.50;;;;;;5066516;28;20161;-81
2021/03/18 12:31:50;;;;;;;3.78;2.38;;;17.80;42.30;;;;;;5082371;28;20157;-81
2021/03/18 12:34:17;;;;;;;3.83;2.65;;;17.90;41.90;;;;;;5083982;28;20263;-83
2021/03/18 12:36:44;;;;;;;3.63;2.20;;;18.10;41.70;;;;;;5082623;28;20632;-81
2021/03/18 12:39:10;;;;;;;3.70;2.15;;;18.00;41.50;;;;;;5079429;28;20169;-80
2021/03/18 12:41:36;;;;;;;4.43;2.50;;;18.00;41.70;;;;;;5079747;28;20166;-81
2021/03/18 12:44:04;;;;;;;3.95;2.38;;;18.00;41.90;;;;;;5102701;28;20158;-82
2021/03/18 12:46:31;;;;;;;3.72;2.17;;;18.00;41.80;;;;;;5084407;28;20197;-81
2021/03/18 12:49:04;;;;;;;4.70;2.85;;;18.00;41.70;;;;;;5085590;28;20165;-81
2021/03/18 12:51:29;;;;;;;4.03;2.28;;;18.00;42.10;;;;;;5084738;28;20158;-81
2021/03/18 12:53:59;;;;;;;4.03;2.45;;;18.00;41.90;;;;;;5097674;28;20497;-80
2021/03/18 12:56:27;;;;;;;5.30;2.60;;;17.90;42.50;;;;;;5080478;28;20686;-82
2021/03/18 12:59:01;;;;;;;3.60;2.30;;;17.90;42.50;;;;;;5084443;28;20169;-82
2021/03/18 13:01:27;;;;;;;3.17;2.20;;;17.80;42.80;;;;;;5100556;28;20695;-81
2021/03/18 13:03:55;;;;;;;4.95;2.40;;;17.80;42.90;;;;;;5069367;28;20315;-81
2021/03/18 13:06:22;;;;;;;5.13;2.60;;;17.80;43.00;;;;;;5067072;28;20191;-82
2021/03/18 13:08:51;;;;;;;3.55;2.42;;;17.80;43.00;;;;;;5062461;28;20531;-80
2021/03/18 13:11:18;;;;;;;6.05;2.40;;;17.80;43.00;;;;;;5089374;28;20157;-81
2021/03/18 13:13:45;;;;;;;4.93;2.38;;;17.80;43.20;;;;;;5076674;28;20165;-79
2021/03/18 13:16:12;;;;;;;4.15;2.50;;;17.80;43.80;;;;;;5074322;28;20180;-79
2021/03/18 13:18:39;;;;;;;3.22;2.50;;;17.80;43.30;;;;;;5089435;28;20770;-79
2021/03/18 13:21:04;;;;;;;3.83;2.20;;;17.80;43.90;;;;;;5073466;28;20531;-79
2021/03/18 13:23:30;;;;;;;4.90;2.50;;;17.70;43.80;;;;;;5074915;28;20149;-80